Time;durP1;ratioP1;P1;durP2;ratioP2;P2;SDS_P1;SDS_P2;PMS_P1;PMS_P2;Temp;Humidity;BMP_temperature;BMP_pressure;BME280_temperature;BME280_humidity;BME280_pressure;Samples;Min_cycle;Max_cycle;Signal;HPM_P1;HPM_P2
2023/03/15 00:00:18;;;;;;;8.60;8.40;;;2.90;99.90;;;;;;5124929;28;20239;-81
2023/03/15 00:02:47;;;;;;;8.90;8.63;;;2.90;99.90;;;;;;5123922;28;20320;-81
2023/03/15 00:05:17;;;;;;;8.70;8.50;;;2.90;99.90;;;;;;5123614;28;20232;-81
2023/03/15 00:07:47;;;;;;;8.70;8.50;;;2.90;99.90;;;;;;5123978;28;20252;-80
2023/03/15 00:10:16;;;;;;;8.47;8.27;;;3.00;99.90;;;;;;5125997;28;20285;-80
2023/03/15 00:12:45;;;;;;;8.17;7.97;;;3.00;99.90;;;;;;5123980;28;20263;-80
2023/03/15 00:15:17;;;;;;;8.30;8.10;;;3.00;99.90;;;;;;5123478;28;20225;-80
2023/03/15 00:17:45;;;;;;;8.60;8.40;;;2.90;99.90;;;;;;5123133;28;20224;-79
2023/03/15 00:20:14;;;;;;;8.20;8.00;;;2.90;99.90;;;;;;5122311;28;20221;-80
2023/03/15 00:22:43;;;;;;;8.40;8.20;;;2.90;99.90;;;;;;5122292;28;20239;-81
2023/03/15 00:25:12;;;;;;;8.50;8.30;;;2.90;99.90;;;;;;5122349;27;20240;-81
2023/03/15 00:27:43;;;;;;;8.37;8.17;;;3.00;99.90;;;;;;5122257;28;20270;-81
2023/03/15 00:30:11;;;;;;;8.57;8.37;;;2.90;99.90;;;;;;5123141;28;20283;-81
2023/03/15 00:32:52;;;;;;;8.40;8.20;;;2.90;99.90;;;;;;5122270;28;20327;-80
2023/03/15 00:35:21;;;;;;;8.50;8.30;;;2.90;99.90;;;;;;5122375;27;20256;-81
2023/03/15 00:37:48;;;;;;;8.40;8.20;;;2.90;99.90;;;;;;5122090;28;20275;-81
2023/03/15 00:40:18;;;;;;;8.10;7.90;;;2.90;99.90;;;;;;5122525;28;20278;-81
2023/03/15 00:42:48;;;;;;;8.33;8.13;;;2.90;99.90;;;;;;5122636;28;20229;-81
2023/03/15 00:48:03;;;;;;;8.43;8.23;;;2.90;99.90;;;;;;5145677;22;20232;-82
2023/03/15 00:50:33;;;;;;;8.57;8.37;;;2.90;99.90;;;;;;5123706;28;20221;-83
2023/03/15 00:53:02;;;;;;;8.43;8.23;;;3.00;99.90;;;;;;5124464;27;20239;-82
2023/03/15 00:55:32;;;;;;;8.30;8.10;;;3.00;99.90;;;;;;5127820;28;20221;-82
2023/03/15 00:58:02;;;;;;;8.33;8.13;;;2.90;99.90;;;;;;5130279;28;20296;-82
2023/03/15 01:00:31;;;;;;;8.13;7.93;;;2.90;99.90;;;;;;5129652;28;20217;-82
2023/03/15 01:03:01;;;;;;;8.40;8.20;;;2.80;99.90;;;;;;5128057;28;20228;-83
2023/03/15 01:05:30;;;;;;;8.50;8.30;;;2.70;99.90;;;;;;5127443;28;20229;-82
2023/03/15 01:08:01;;;;;;;8.60;8.40;;;2.60;99.90;;;;;;5126831;28;20259;-82
2023/03/15 01:10:29;;;;;;;8.23;8.03;;;2.60;99.90;;;;;;5128047;28;20235;-83
2023/03/15 01:12:58;;;;;;;8.30;8.10;;;2.50;99.90;;;;;;5127852;28;20251;-82
2023/03/15 01:15:27;;;;;;;8.40;8.20;;;2.50;99.90;;;;;;5133600;28;20233;-82
2023/03/15 01:17:56;;;;;;;8.53;8.33;;;2.40;99.90;;;;;;5139414;28;20240;-82
2023/03/15 01:20:26;;;;;;;8.60;8.40;;;2.20;99.90;;;;;;5133039;28;20248;-82
2023/03/15 01:22:58;;;;;;;8.63;8.43;;;2.00;99.90;;;;;;5129981;28;20259;-82
2023/03/15 01:25:26;;;;;;;8.47;8.27;;;2.00;99.90;;;;;;5128770;28;20235;-82
2023/03/15 01:27:53;;;;;;;8.17;7.97;;;2.00;99.90;;;;;;5127121;28;20390;-81
2023/03/15 01:30:22;;;;;;;8.60;8.40;;;1.90;99.90;;;;;;5127330;28;20249;-82
2023/03/15 01:32:53;;;;;;;8.50;8.30;;;1.80;99.90;;;;;;5127739;28;20303;-82
2023/03/15 01:35:22;;;;;;;8.80;8.60;;;1.80;99.90;;;;;;5126455;28;20252;-82
2023/03/15 01:37:52;;;;;;;8.47;8.27;;;1.80;99.90;;;;;;5126912;28;20385;-81
2023/03/15 01:40:24;;;;;;;8.50;8.30;;;1.80;99.90;;;;;;5131083;28;20229;-82
2023/03/15 01:42:54;;;;;;;9.00;8.70;;;1.80;99.90;;;;;;5129624;28;20236;-82
2023/03/15 01:46:15;;;;;;;9.17;8.87;;;1.80;99.90;;;;;;5128263;28;20263;-82
2023/03/15 01:48:46;;;;;;;8.73;8.53;;;1.80;99.90;;;;;;5125660;28;20251;-82
2023/03/15 01:51:18;;;;;;;8.73;8.53;;;1.90;99.90;;;;;;5126266;28;20247;-82
2023/03/15 01:53:52;;;;;;;8.80;8.60;;;1.90;99.90;;;;;;5125757;28;20233;-82
2023/03/15 01:56:21;;;;;;;9.00;8.70;;;1.90;99.90;;;;;;5127969;28;20220;-82
2023/03/15 01:58:52;;;;;;;8.90;8.63;;;2.00;99.90;;;;;;5123192;28;20335;-82
2023/03/15 02:01:20;;;;;;;8.67;8.47;;;2.00;99.90;;;;;;5123155;28;20213;-82
2023/03/15 02:03:53;;;;;;;8.70;8.50;;;2.10;99.90;;;;;;5123977;27;20235;-83
2023/03/15 02:06:22;;;;;;;8.50;8.30;;;2.10;99.90;;;;;;5123722;28;20749;-82
2023/03/15 02:08:56;;;;;;;8.30;8.10;;;2.10;99.90;;;;;;5123754;28;20385;-82
2023/03/15 02:11:41;;;;;;;8.40;8.20;;;2.10;99.90;;;;;;5123437;28;20216;-82
2023/03/15 02:14:11;;;;;;;8.50;8.30;;;2.20;99.90;;;;;;5125381;28;20228;-82
2023/03/15 02:16:43;;;;;;;8.53;8.33;;;2.20;99.90;;;;;;5124319;28;20228;-82
2023/03/15 02:19:30;;;;;;;8.50;8.30;;;2.20;99.90;;;;;;5124768;28;20323;-81
2023/03/15 02:22:12;;;;;;;8.60;8.40;;;2.10;99.90;;;;;;5124470;28;20221;-82
2023/03/15 02:24:57;;;;;;;8.27;8.07;;;2.20;99.90;;;;;;5124132;28;20233;-81
2023/03/15 02:27:35;;;;;;;8.40;8.20;;;2.10;99.90;;;;;;5123481;28;20270;-81
2023/03/15 02:30:04;;;;;;;8.40;8.20;;;2.10;99.90;;;;;;5123982;28;20236;-81
2023/03/15 02:32:33;;;;;;;8.60;8.40;;;2.00;99.90;;;;;;5124037;28;20287;-81
2023/03/15 02:35:03;;;;;;;8.60;8.40;;;2.00;99.90;;;;;;5123896;28;20256;-81
2023/03/15 02:37:30;;;;;;;8.67;8.47;;;2.00;99.90;;;;;;5123768;28;20232;-82
2023/03/15 02:40:02;;;;;;;8.50;8.30;;;2.10;99.90;;;;;;5124419;28;20288;-82
2023/03/15 02:42:34;;;;;;;8.23;8.03;;;2.10;99.90;;;;;;5125966;28;20244;-81
2023/03/15 02:45:01;;;;;;;8.37;8.17;;;2.10;99.90;;;;;;5139974;28;20220;-81
2023/03/15 02:47:33;;;;;;;8.23;8.03;;;2.20;99.90;;;;;;5139950;28;20233;-81
2023/03/15 02:50:00;;;;;;;8.50;8.30;;;2.10;99.90;;;;;;5134388;28;20239;-81
2023/03/15 02:52:29;;;;;;;8.50;8.30;;;2.10;99.90;;;;;;5129118;28;20229;-82
2023/03/15 02:54:58;;;;;;;8.40;8.20;;;2.10;99.90;;;;;;5128047;28;21103;-81
2023/03/15 02:57:27;;;;;;;8.50;8.30;;;2.10;99.90;;;;;;5127515;28;20243;-81
2023/03/15 03:00:06;;;;;;;8.23;8.03;;;2.10;99.90;;;;;;5125588;28;20328;-81
2023/03/15 03:02:35;;;;;;;8.57;8.37;;;2.10;99.90;;;;;;5125484;28;20228;-82
2023/03/15 03:05:04;;;;;;;8.17;7.97;;;2.00;99.90;;;;;;5125606;28;20315;-81
2023/03/15 03:07:34;;;;;;;8.30;8.10;;;2.00;99.90;;;;;;5124334;28;20264;-81
2023/03/15 03:10:03;;;;;;;7.67;7.47;;;2.00;99.90;;;;;;5124328;28;20301;-81
2023/03/15 03:12:32;;;;;;;8.00;7.80;;;1.90;99.90;;;;;;5125042;28;20233;-81
2023/03/15 03:15:10;;;;;;;7.77;7.57;;;1.80;99.90;;;;;;5124790;28;20240;-81
2023/03/15 03:17:41;;;;;;;7.90;7.70;;;1.80;99.90;;;;;;5123923;28;20248;-82
2023/03/15 03:20:12;;;;;;;8.13;7.93;;;1.80;99.90;;;;;;5132643;28;20256;-82
2023/03/15 03:22:43;;;;;;;8.30;8.10;;;1.70;99.90;;;;;;5133341;28;20209;-82
2023/03/15 03:25:12;;;;;;;8.57;8.37;;;1.70;99.90;;;;;;5130532;28;20229;-81
2023/03/15 03:27:39;;;;;;;8.20;8.00;;;1.70;99.90;;;;;;5126434;28;20264;-82
2023/03/15 03:30:18;;;;;;;8.53;8.33;;;1.60;99.90;;;;;;5125344;28;20240;-82
2023/03/15 03:32:45;;;;;;;8.37;8.17;;;1.60;99.90;;;;;;5126629;28;21385;-82
2023/03/15 03:35:15;;;;;;;7.90;7.70;;;1.60;99.90;;;;;;5125507;28;20220;-82
2023/03/15 03:37:44;;;;;;;7.90;7.70;;;1.60;99.90;;;;;;5124864;28;20247;-82
2023/03/15 03:40:14;;;;;;;7.80;7.60;;;1.50;99.90;;;;;;5128513;28;20235;-82
2023/03/15 03:42:43;;;;;;;7.60;7.40;;;1.40;99.90;;;;;;5123017;28;20245;-82
2023/03/15 03:45:14;;;;;;;7.90;7.70;;;1.40;99.90;;;;;;5124557;28;20228;-82
2023/03/15 03:47:42;;;;;;;8.10;7.90;;;1.40;99.90;;;;;;5123922;28;20307;-82
2023/03/15 03:50:12;;;;;;;8.00;7.80;;;1.30;99.90;;;;;;5124410;28;20267;-82
2023/03/15 03:52:42;;;;;;;7.90;7.70;;;1.30;99.90;;;;;;5124395;28;20320;-82
2023/03/15 03:55:12;;;;;;;7.53;7.33;;;1.30;99.90;;;;;;5124776;28;20233;-82
2023/03/15 03:57:40;;;;;;;7.87;7.67;;;1.20;99.90;;;;;;5124731;28;20264;-82
2023/03/15 04:00:10;;;;;;;7.70;7.50;;;1.20;99.90;;;;;;5124172;28;20238;-82
2023/03/15 04:02:44;;;;;;;8.00;7.80;;;1.20;99.90;;;;;;5124119;28;20220;-82
2023/03/15 04:05:13;;;;;;;7.57;7.37;;;1.20;99.90;;;;;;5124549;28;20221;-82
2023/03/15 04:07:41;;;;;;;8.03;7.83;;;1.20;99.90;;;;;;5124404;28;20289;-82
2023/03/15 04:10:15;;;;;;;7.80;7.60;;;1.20;99.90;;;;;;5123841;28;20241;-82
2023/03/15 04:12:48;;;;;;;8.00;7.80;;;1.20;99.90;;;;;;5124224;28;20225;-82
2023/03/15 04:15:18;;;;;;;7.80;7.60;;;1.10;99.90;;;;;;5124290;28;20240;-82
2023/03/15 04:17:54;;;;;;;7.80;7.60;;;1.10;99.90;;;;;;5124604;28;20358;-82
2023/03/15 04:20:25;;;;;;;8.00;7.80;;;1.10;99.90;;;;;;5124198;28;20234;-81
2023/03/15 04:22:54;;;;;;;8.00;7.80;;;1.10;99.90;;;;;;5123767;28;20276;-81
2023/03/15 04:25:25;;;;;;;7.97;7.77;;;1.10;99.90;;;;;;5123704;28;21072;-82
2023/03/15 04:28:01;;;;;;;8.00;7.80;;;1.10;99.90;;;;;;5123935;28;20247;-82
2023/03/15 04:30:31;;;;;;;8.30;8.10;;;1.10;99.90;;;;;;5128680;28;20233;-82
2023/03/15 04:33:02;;;;;;;7.80;7.60;;;1.00;99.90;;;;;;5127807;28;20227;-82
2023/03/15 04:35:32;;;;;;;7.97;7.77;;;1.10;99.90;;;;;;5129305;28;20233;-81
2023/03/15 04:38:00;;;;;;;7.90;7.70;;;1.00;99.90;;;;;;5132883;28;20256;-82
2023/03/15 04:40:29;;;;;;;8.00;7.80;;;1.00;99.90;;;;;;5128534;28;20292;-82
2023/03/15 04:42:59;;;;;;;8.00;7.80;;;1.10;99.90;;;;;;5127923;28;20311;-82
2023/03/15 04:45:28;;;;;;;7.90;7.70;;;1.10;99.90;;;;;;5127943;28;20315;-82
2023/03/15 04:47:58;;;;;;;7.80;7.60;;;1.10;99.90;;;;;;5127735;28;20241;-82
2023/03/15 04:50:36;;;;;;;7.80;7.60;;;1.10;99.90;;;;;;5127757;28;20228;-83
2023/03/15 04:53:05;;;;;;;7.73;7.53;;;1.10;99.90;;;;;;5129015;28;20216;-82
2023/03/15 04:55:34;;;;;;;8.10;7.90;;;1.10;99.90;;;;;;5137788;28;20240;-81
2023/03/15 04:58:05;;;;;;;8.20;8.00;;;1.10;99.90;;;;;;5141967;28;20255;-82
2023/03/15 05:00:34;;;;;;;7.90;7.70;;;1.10;99.90;;;;;;5139162;28;20220;-83
2023/03/15 05:03:01;;;;;;;7.90;7.70;;;1.10;99.90;;;;;;5133743;28;20232;-82
2023/03/15 05:05:41;;;;;;;8.20;8.00;;;1.10;99.90;;;;;;5138444;28;20233;-82
2023/03/15 05:08:09;;;;;;;8.23;8.03;;;1.10;99.90;;;;;;5137256;28;20233;-82
2023/03/15 05:10:41;;;;;;;8.30;8.10;;;1.10;99.90;;;;;;5131141;28;20388;-83
2023/03/15 05:13:09;;;;;;;8.40;8.20;;;1.00;99.90;;;;;;5131405;28;20231;-83
2023/03/15 05:15:38;;;;;;;9.17;8.87;;;1.00;99.90;;;;;;5131122;28;20229;-83
2023/03/15 05:18:08;;;;;;;9.10;8.80;;;1.00;99.90;;;;;;5130028;28;20257;-82
2023/03/15 05:20:38;;;;;;;9.23;8.93;;;0.90;99.90;;;;;;5129908;28;20248;-82
2023/03/15 05:23:07;;;;;;;9.20;8.90;;;0.90;99.90;;;;;;5133099;27;20989;-83
2023/03/15 05:25:37;;;;;;;9.40;9.10;;;0.90;99.90;;;;;;5125441;28;20315;-82
2023/03/15 05:28:06;;;;;;;9.30;9.00;;;0.90;99.90;;;;;;5128791;28;20267;-82
2023/03/15 05:30:35;;;;;;;9.40;9.10;;;0.80;99.90;;;;;;5130901;28;20314;-82
2023/03/15 05:33:03;;;;;;;9.50;9.20;;;0.90;99.90;;;;;;5129299;28;20225;-82
2023/03/15 05:35:36;;;;;;;9.13;8.83;;;0.90;99.90;;;;;;5128631;28;20232;-83
2023/03/15 05:38:06;;;;;;;9.33;9.03;;;0.80;99.90;;;;;;5128579;28;20264;-82
2023/03/15 05:40:33;;;;;;;9.20;8.90;;;0.80;99.90;;;;;;5127536;27;20319;-83
2023/03/15 05:43:02;;;;;;;9.13;8.83;;;0.80;99.90;;;;;;5128259;28;20308;-83
2023/03/15 05:45:32;;;;;;;8.97;8.70;;;0.80;99.90;;;;;;5128203;28;20248;-83
2023/03/15 05:48:01;;;;;;;8.77;8.57;;;0.70;99.90;;;;;;5127085;28;20236;-83
2023/03/15 05:50:32;;;;;;;8.83;8.63;;;0.70;99.90;;;;;;5127675;28;20251;-83
2023/03/15 05:53:00;;;;;;;8.70;8.50;;;0.70;99.90;;;;;;5127150;28;20259;-83
2023/03/15 05:55:36;;;;;;;8.70;8.50;;;0.70;99.90;;;;;;5127270;28;20239;-83
2023/03/15 05:58:09;;;;;;;9.10;8.80;;;0.70;99.90;;;;;;5126826;28;20262;-82
2023/03/15 06:00:37;;;;;;;9.47;9.17;;;0.70;99.90;;;;;;5127128;28;20227;-83
2023/03/15 06:03:07;;;;;;;9.13;8.83;;;0.70;99.90;;;;;;5126840;28;20221;-83
2023/03/15 06:05:40;;;;;;;9.40;9.10;;;0.70;99.90;;;;;;5128322;28;20315;-82
2023/03/15 06:08:07;;;;;;;9.20;8.90;;;0.70;99.90;;;;;;5126917;28;20236;-82
2023/03/15 06:10:46;;;;;;;9.00;8.70;;;0.70;99.90;;;;;;5126584;28;20236;-82
2023/03/15 06:13:15;;;;;;;9.20;8.90;;;0.70;99.90;;;;;;5128640;28;20252;-82
2023/03/15 06:15:43;;;;;;;9.30;9.00;;;0.70;99.90;;;;;;5127547;28;20235;-82
2023/03/15 06:18:13;;;;;;;9.03;8.73;;;0.70;99.90;;;;;;5127206;28;20264;-82
2023/03/15 06:20:43;;;;;;;9.30;9.00;;;0.70;99.90;;;;;;5126300;28;20225;-82
2023/03/15 06:23:13;;;;;;;8.87;8.67;;;0.80;99.90;;;;;;5126197;28;20227;-82
2023/03/15 06:25:44;;;;;;;9.20;8.90;;;0.80;99.90;;;;;;5126687;28;20711;-82
2023/03/15 06:28:12;;;;;;;9.17;8.87;;;0.80;99.90;;;;;;5126583;28;20244;-82
2023/03/15 06:30:41;;;;;;;9.07;8.77;;;0.90;99.90;;;;;;5126437;28;20232;-82
2023/03/15 06:33:11;;;;;;;9.17;8.87;;;0.90;99.90;;;;;;5126550;28;20209;-82
2023/03/15 06:35:40;;;;;;;8.83;8.63;;;0.90;99.90;;;;;;5126592;28;20255;-82
2023/03/15 06:38:11;;;;;;;9.33;9.03;;;0.90;99.90;;;;;;5126230;28;20324;-82
2023/03/15 06:40:39;;;;;;;9.33;9.03;;;1.00;99.90;;;;;;5126814;28;20248;-82
2023/03/15 06:43:12;;;;;;;9.70;9.40;;;1.10;99.90;;;;;;5126666;28;20445;-82
2023/03/15 06:45:40;;;;;;;9.60;9.30;;;1.10;99.90;;;;;;5128753;28;20221;-85
2023/03/15 06:48:07;;;;;;;9.47;9.17;;;1.20;99.90;;;;;;5127165;28;20237;-83
2023/03/15 06:50:35;;;;;;;9.70;9.40;;;1.30;99.90;;;;;;5122150;27;20268;-81
2023/03/15 06:53:03;;;;;;;9.70;9.40;;;1.30;99.90;;;;;;5120716;28;20235;-82
2023/03/15 06:55:33;;;;;;;9.90;9.60;;;1.40;99.90;;;;;;5121807;28;20281;-86
2023/03/15 06:58:09;;;;;;;9.90;9.60;;;1.40;99.90;;;;;;5122938;28;20330;-86
2023/03/15 07:00:48;;;;;;;9.80;9.50;;;1.50;99.90;;;;;;5122333;28;20224;-85
2023/03/15 07:03:15;;;;;;;10.10;9.80;;;1.50;99.90;;;;;;5123319;28;20250;-85
2023/03/15 07:05:44;;;;;;;9.90;9.60;;;1.60;99.90;;;;;;5124214;28;20251;-82
2023/03/15 07:08:11;;;;;;;9.97;9.67;;;1.60;99.90;;;;;;5125592;28;20225;-80
2023/03/15 07:10:41;;;;;;;10.30;10.00;;;1.70;99.90;;;;;;5126227;28;20232;-82
2023/03/15 07:13:10;;;;;;;10.20;9.90;;;1.70;99.90;;;;;;5121124;28;20244;-82
2023/03/15 07:15:40;;;;;;;10.23;9.93;;;1.70;99.90;;;;;;5121695;28;20233;-82
2023/03/15 07:18:09;;;;;;;10.40;10.10;;;1.80;99.90;;;;;;5121544;28;20235;-80
2023/03/15 07:20:36;;;;;;;10.23;9.93;;;1.80;99.90;;;;;;5122116;28;20249;-82
2023/03/15 07:23:08;;;;;;;10.13;9.83;;;1.90;99.90;;;;;;5123548;28;20237;-82
2023/03/15 07:25:38;;;;;;;10.03;9.73;;;1.90;99.90;;;;;;5124239;28;20307;-82
2023/03/15 07:28:07;;;;;;;9.97;9.67;;;1.90;99.90;;;;;;5124742;28;20228;-82
2023/03/15 07:30:37;;;;;;;10.13;9.83;;;1.90;99.90;;;;;;5123476;28;20233;-83
2023/03/15 07:33:08;;;;;;;9.90;9.60;;;2.00;99.90;;;;;;5121747;28;20229;-83
2023/03/15 07:35:36;;;;;;;10.30;10.00;;;2.10;99.90;;;;;;5122510;28;20355;-83
2023/03/15 07:38:05;;;;;;;10.20;9.90;;;2.20;99.90;;;;;;5122307;28;20303;-84
2023/03/15 07:40:34;;;;;;;10.50;10.20;;;2.20;99.90;;;;;;5121605;28;20224;-83
2023/03/15 07:43:05;;;;;;;9.90;9.60;;;2.30;99.90;;;;;;5121980;28;20244;-82
2023/03/15 07:45:33;;;;;;;10.40;10.10;;;2.30;99.90;;;;;;5123593;28;20224;-82
2023/03/15 07:48:02;;;;;;;10.20;9.90;;;2.40;99.90;;;;;;5122892;28;20236;-82
2023/03/15 07:50:33;;;;;;;10.50;10.20;;;2.40;99.90;;;;;;5122162;28;20257;-82
2023/03/15 07:53:02;;;;;;;10.40;10.10;;;2.50;99.90;;;;;;5122468;28;20284;-82
2023/03/15 07:55:31;;;;;;;10.10;9.80;;;2.60;99.90;;;;;;5122391;28;20236;-81
2023/03/15 07:58:01;;;;;;;9.73;9.43;;;2.60;99.90;;;;;;5120891;28;20236;-81
2023/03/15 08:00:30;;;;;;;10.00;9.70;;;2.70;99.90;;;;;;5120862;28;20279;-82
2023/03/15 08:02:59;;;;;;;10.10;9.80;;;2.70;99.90;;;;;;5121859;28;20256;-81
2023/03/15 08:05:27;;;;;;;10.00;9.70;;;2.70;99.90;;;;;;5122494;28;20232;-81
2023/03/15 08:07:59;;;;;;;9.60;9.30;;;2.80;99.90;;;;;;5121001;28;20259;-82
2023/03/15 08:10:28;;;;;;;9.43;9.13;;;2.80;99.90;;;;;;5121667;28;20235;-82
2023/03/15 08:12:58;;;;;;;9.70;9.40;;;2.80;99.90;;;;;;5120812;28;20267;-82
2023/03/15 08:15:30;;;;;;;9.80;9.50;;;2.80;99.90;;;;;;5121284;28;20233;-83
2023/03/15 08:17:58;;;;;;;10.10;9.80;;;3.00;99.90;;;;;;5121819;28;20224;-83
2023/03/15 08:20:26;;;;;;;10.30;10.00;;;3.10;99.90;;;;;;5120590;28;20228;-83
2023/03/15 08:22:57;;;;;;;10.13;9.83;;;3.10;99.90;;;;;;5123470;28;20251;-82
2023/03/15 08:25:26;;;;;;;9.90;9.60;;;3.10;99.90;;;;;;5124692;28;20308;-84
2023/03/15 08:27:55;;;;;;;10.00;9.70;;;3.30;99.90;;;;;;5120790;28;20229;-84
2023/03/15 08:30:25;;;;;;;10.03;9.73;;;3.40;99.90;;;;;;5120528;28;20231;-83
2023/03/15 08:32:55;;;;;;;10.27;9.97;;;3.50;99.90;;;;;;5120334;28;20252;-83
2023/03/15 08:35:24;;;;;;;9.80;9.50;;;3.50;99.90;;;;;;5120902;28;20327;-85
2023/03/15 08:37:54;;;;;;;9.83;9.53;;;3.50;99.90;;;;;;5124051;28;20990;-83
2023/03/15 08:40:25;;;;;;;9.50;9.20;;;3.50;99.90;;;;;;5122357;28;21069;-85
2023/03/15 08:42:54;;;;;;;9.70;9.40;;;3.50;99.90;;;;;;5123354;28;20217;-83
2023/03/15 08:45:23;;;;;;;9.80;9.50;;;3.60;99.90;;;;;;5122872;28;20244;-82
2023/03/15 08:48:01;;;;;;;9.90;9.60;;;3.60;99.90;;;;;;5121395;28;20244;-83
2023/03/15 08:50:30;;;;;;;10.00;9.70;;;3.70;99.90;;;;;;5122158;28;20233;-83
2023/03/15 08:52:59;;;;;;;9.87;9.57;;;3.90;99.90;;;;;;5122647;28;20221;-82
2023/03/15 08:55:31;;;;;;;10.00;9.70;;;4.10;99.90;;;;;;5129165;28;20324;-82
2023/03/15 08:58:00;;;;;;;10.00;9.70;;;4.10;99.90;;;;;;5120531;28;20239;-83
2023/03/15 09:00:28;;;;;;;9.97;9.67;;;4.10;99.90;;;;;;5120843;28;20232;-84
2023/03/15 09:02:56;;;;;;;9.80;9.50;;;4.40;99.90;;;;;;5120563;28;20280;-84
2023/03/15 09:05:26;;;;;;;10.10;9.80;;;4.50;99.90;;;;;;5120983;28;20243;-83
2023/03/15 09:07:55;;;;;;;10.00;9.70;;;4.60;99.90;;;;;;5120389;28;20240;-84
2023/03/15 09:10:23;;;;;;;9.87;9.57;;;4.80;99.90;;;;;;5120424;28;20227;-78
2023/03/15 09:12:53;;;;;;;10.10;9.80;;;4.90;99.90;;;;;;5118783;28;20332;-77
2023/03/15 09:15:21;;;;;;;9.40;9.10;;;5.00;99.90;;;;;;5121254;28;20733;-80
2023/03/15 09:17:54;;;;;;;9.20;8.90;;;5.00;99.90;;;;;;5123768;28;20286;-83
2023/03/15 09:20:26;;;;;;;9.47;9.17;;;4.90;99.90;;;;;;5125353;28;20240;-85
2023/03/15 09:23:00;;;;;;;9.47;9.17;;;4.80;99.90;;;;;;5124129;28;20313;-83
2023/03/15 09:25:30;;;;;;;9.73;9.43;;;4.70;99.90;;;;;;5123875;28;20232;-82
2023/03/15 09:28:01;;;;;;;9.73;9.43;;;4.70;99.90;;;;;;5123682;28;20233;-85
2023/03/15 09:30:29;;;;;;;9.50;9.20;;;4.80;99.90;;;;;;5122923;28;20243;-84
2023/03/15 09:32:58;;;;;;;9.70;9.40;;;4.90;99.90;;;;;;5123793;28;20229;-85
2023/03/15 09:35:28;;;;;;;9.80;9.50;;;4.90;99.90;;;;;;5123729;28;20312;-85
2023/03/15 09:37:58;;;;;;;9.70;9.40;;;4.80;99.90;;;;;;5122959;28;20253;-85
2023/03/15 09:40:29;;;;;;;9.83;9.53;;;4.90;99.90;;;;;;5123173;28;20247;-85
2023/03/15 09:43:05;;;;;;;9.47;9.17;;;4.90;99.90;;;;;;5122841;28;20319;-84
2023/03/15 09:45:54;;;;;;;10.00;9.70;;;4.90;99.90;;;;;;5123216;28;20220;-84
2023/03/15 09:48:31;;;;;;;10.10;9.80;;;4.80;99.90;;;;;;5123358;28;20300;-84
2023/03/15 09:51:03;;;;;;;9.83;9.53;;;4.80;99.90;;;;;;5122750;28;20250;-85
2023/03/15 09:53:38;;;;;;;9.90;9.60;;;4.70;99.90;;;;;;5123594;28;20324;-86
2023/03/15 09:56:27;;;;;;;9.87;9.57;;;4.70;99.90;;;;;;5123238;28;20299;-84
2023/03/15 09:59:03;;;;;;;9.90;9.60;;;4.60;99.90;;;;;;5123081;28;20256;-84
2023/03/15 10:01:35;;;;;;;9.50;9.20;;;4.50;99.90;;;;;;5122586;28;20234;-84
2023/03/15 10:04:11;;;;;;;9.70;9.40;;;4.50;99.90;;;;;;5125409;28;20303;-84
2023/03/15 10:06:44;;;;;;;9.70;9.40;;;4.50;99.90;;;;;;5123474;28;20216;-85
2023/03/15 10:09:20;;;;;;;9.70;9.40;;;4.50;99.90;;;;;;5122881;28;20267;-84
2023/03/15 10:11:59;;;;;;;9.57;9.27;;;4.50;99.90;;;;;;5121204;28;20236;-84
2023/03/15 10:14:46;;;;;;;9.73;9.43;;;4.40;99.90;;;;;;5122610;28;20220;-84
2023/03/15 10:17:15;;;;;;;9.83;9.53;;;4.20;99.90;;;;;;5122706;28;20237;-85
2023/03/15 10:19:57;;;;;;;9.70;9.40;;;4.10;99.90;;;;;;5122923;28;20248;-84
2023/03/15 10:22:34;;;;;;;9.97;9.67;;;4.00;99.90;;;;;;5122048;28;20311;-84
2023/03/15 10:25:11;;;;;;;10.50;10.20;;;4.10;99.90;;;;;;5122540;27;20205;-83
2023/03/15 10:27:48;;;;;;;10.60;10.30;;;4.20;99.90;;;;;;5122584;28;20287;-84
2023/03/15 10:30:27;;;;;;;10.40;10.10;;;4.40;99.90;;;;;;5122696;28;20294;-85
2023/03/15 10:33:04;;;;;;;10.47;10.17;;;4.60;99.90;;;;;;5122674;28;20319;-87
2023/03/15 10:35:34;;;;;;;10.20;9.90;;;4.70;99.90;;;;;;5122944;28;20225;-87
2023/03/15 10:38:04;;;;;;;10.57;10.27;;;4.80;99.90;;;;;;5124749;28;20236;-87
2023/03/15 10:40:43;;;;;;;10.40;10.10;;;4.80;99.90;;;;;;5133553;28;20205;-87
2023/03/15 10:43:31;;;;;;;10.20;9.90;;;4.80;99.90;;;;;;5122823;28;20251;-87
2023/03/15 10:46:09;;;;;;;9.97;9.67;;;4.80;99.90;;;;;;5123198;28;20212;-87
2023/03/15 10:48:39;;;;;;;9.70;9.40;;;4.80;99.90;;;;;;5123444;28;20268;-88
2023/03/15 10:54:05;;;;;;;9.97;9.67;;;4.50;99.90;;;;;;5121827;28;20221;-87
2023/03/15 10:56:42;;;;;;;10.40;10.10;;;4.40;99.90;;;;;;5122761;28;20232;-88
2023/03/15 10:59:28;;;;;;;10.00;9.70;;;4.40;99.90;;;;;;5124994;28;20245;-88
2023/03/15 11:02:22;;;;;;;10.10;9.80;;;4.30;99.90;;;;;;5127405;28;20228;-87
2023/03/15 11:05:01;;;;;;;10.23;9.93;;;4.20;99.90;;;;;;5128091;28;20232;-88
2023/03/15 11:07:31;;;;;;;10.40;10.10;;;4.10;99.90;;;;;;5125759;28;20228;-87
2023/03/15 11:10:01;;;;;;;10.20;9.90;;;4.00;99.90;;;;;;5123251;28;20251;-88
2023/03/15 11:12:38;;;;;;;10.13;9.83;;;3.90;99.90;;;;;;5122749;28;20247;-86
2023/03/15 11:15:17;;;;;;;10.20;9.90;;;3.80;99.90;;;;;;5122987;28;20224;-87
2023/03/15 11:20:41;;;;;;;10.50;10.20;;;3.90;99.90;;;;;;5126290;28;20232;-87
2023/03/15 11:23:24;;;;;;;10.20;9.90;;;3.90;99.90;;;;;;5123707;28;20232;-89
2023/03/15 11:25:52;;;;;;;9.93;9.63;;;3.90;99.90;;;;;;5122387;28;20267;-89
2023/03/15 11:28:28;;;;;;;9.77;9.47;;;3.90;99.90;;;;;;5122219;28;20272;-89
2023/03/15 11:30:59;;;;;;;10.10;9.80;;;3.90;99.90;;;;;;5122769;28;20233;-88
2023/03/15 11:33:52;;;;;;;9.80;9.50;;;3.90;99.90;;;;;;5123305;28;20258;-87
2023/03/15 11:36:32;;;;;;;9.97;9.67;;;4.00;99.90;;;;;;5123592;27;20297;-87
2023/03/15 11:39:03;;;;;;;10.17;9.87;;;4.00;99.90;;;;;;5122462;28;20353;-87
2023/03/15 11:41:39;;;;;;;10.10;9.80;;;4.00;99.90;;;;;;5123018;28;20251;-87
2023/03/15 11:44:18;;;;;;;10.20;9.90;;;4.00;99.90;;;;;;5123310;28;20235;-87
2023/03/15 11:49:42;;;;;;;10.20;9.90;;;4.10;99.90;;;;;;5121519;28;20227;-87
2023/03/15 11:52:11;;;;;;;10.30;10.00;;;4.10;99.90;;;;;;5122288;28;20237;-87
2023/03/15 11:54:41;;;;;;;10.13;9.83;;;4.20;99.90;;;;;;5122736;28;20278;-87
2023/03/15 12:01:02;;;;;;;10.23;9.93;;;4.10;99.90;;;;;;5121362;28;20221;-86
2023/03/15 12:03:39;;;;;;;10.10;9.80;;;4.10;99.90;;;;;;5120299;28;20327;-87
2023/03/15 12:06:44;;;;;;;10.20;9.90;;;4.10;99.90;;;;;;5121871;28;20263;-86
2023/03/15 12:09:50;;;;;;;10.30;10.00;;;4.10;99.90;;;;;;5117539;28;20235;-89
2023/03/15 12:12:47;;;;;;;10.30;10.00;;;4.00;99.90;;;;;;5122805;27;20228;-91
2023/03/15 12:15:49;;;;;;;9.90;9.60;;;4.00;99.90;;;;;;5121961;28;20233;-88
2023/03/15 12:18:35;;;;;;;9.67;9.37;;;4.00;99.90;;;;;;5122052;28;20238;-87
2023/03/15 12:21:24;;;;;;;10.40;10.10;;;4.00;99.90;;;;;;5121894;28;20246;-87
2023/03/15 12:24:11;;;;;;;10.27;9.97;;;4.00;99.90;;;;;;5125833;28;20229;-87
2023/03/15 12:26:48;;;;;;;10.43;10.13;;;3.90;99.90;;;;;;5123739;28;20217;-86
2023/03/15 12:29:26;;;;;;;10.60;10.30;;;3.80;99.90;;;;;;5126514;28;20239;-86
2023/03/15 12:32:06;;;;;;;10.80;10.50;;;3.80;99.90;;;;;;5125207;28;20243;-87
2023/03/15 12:34:53;;;;;;;10.47;10.17;;;3.80;99.90;;;;;;5122501;28;20227;-87
2023/03/15 12:37:23;;;;;;;10.30;10.00;;;3.80;99.90;;;;;;5121470;28;20240;-87
2023/03/15 12:40:01;;;;;;;10.30;10.00;;;3.80;99.90;;;;;;5122179;28;20291;-87
2023/03/15 12:43:03;;;;;;;10.40;10.10;;;3.80;99.90;;;;;;5122611;28;20262;-87
2023/03/15 12:45:50;;;;;;;10.00;9.70;;;3.90;99.90;;;;;;5121697;28;20239;-86
2023/03/15 12:48:29;;;;;;;10.20;9.90;;;4.00;99.90;;;;;;5120996;27;20235;-87
2023/03/15 12:51:08;;;;;;;10.40;10.10;;;4.00;99.90;;;;;;5125154;28;20238;-87
2023/03/15 12:53:54;;;;;;;9.83;9.53;;;4.00;99.90;;;;;;5127920;28;20236;-88
2023/03/15 12:56:50;;;;;;;10.57;10.27;;;4.20;99.90;;;;;;5130495;28;20249;-87
2023/03/15 12:59:30;;;;;;;10.43;10.13;;;4.10;99.90;;;;;;5125077;28;20229;-87
2023/03/15 13:02:00;;;;;;;10.60;10.30;;;4.20;99.90;;;;;;5125052;28;20282;-88
2023/03/15 13:04:30;;;;;;;10.33;10.03;;;4.20;99.90;;;;;;5124718;28;20216;-89
2023/03/15 13:13:59;;;;;;;10.33;10.03;;;4.20;99.90;;;;;;5123202;28;20327;-87
2023/03/15 13:16:37;;;;;;;10.20;9.90;;;4.20;99.90;;;;;;5125813;28;20247;-88
2023/03/15 13:19:17;;;;;;;10.23;9.93;;;4.20;99.90;;;;;;5126861;28;20220;-87
2023/03/15 13:22:12;;;;;;;10.30;10.00;;;4.10;99.90;;;;;;5124727;28;20233;-86
2023/03/15 13:24:52;;;;;;;10.30;10.00;;;4.10;99.90;;;;;;5122428;28;20263;-86
2023/03/15 13:27:45;;;;;;;10.30;10.00;;;4.10;99.90;;;;;;5124204;28;20224;-88
2023/03/15 13:30:33;;;;;;;10.17;9.87;;;4.20;99.90;;;;;;5124759;28;20275;-86
2023/03/15 13:33:19;;;;;;;10.17;9.87;;;4.20;99.90;;;;;;5125663;28;20243;-87
2023/03/15 13:35:57;;;;;;;10.30;10.00;;;4.20;99.90;;;;;;5125339;28;20228;-87
2023/03/15 13:38:29;;;;;;;10.10;9.80;;;4.20;99.90;;;;;;5124853;28;20341;-86
2023/03/15 13:40:59;;;;;;;9.80;9.50;;;4.20;99.90;;;;;;5124603;28;20221;-86
2023/03/15 13:43:35;;;;;;;10.10;9.80;;;4.20;99.90;;;;;;5125594;28;20235;-87